sensor_id;sensor_type;location;lat;lon;timestamp;pressure;altitude;pressure_sealevel;temperature;humidity
65756;BME280;52489;47.502;18.940;2023-02-28T00:00:38;99107.06;;;-0.72;58.23
65756;BME280;52489;47.502;18.940;2023-02-28T00:01:41;99108.84;;;-0.72;58.25
65756;BME280;52489;47.502;18.940;2023-02-28T00:02:44;99103.72;;;-0.65;58.23
65756;BME280;52489;47.502;18.940;2023-02-28T00:03:47;99107.28;;;-0.66;58.03
65756;BME280;52489;47.502;18.940;2023-02-28T00:04:50;99103.31;;;-0.62;57.84
65756;BME280;52489;47.502;18.940;2023-02-28T00:05:55;99114.03;;;-0.52;57.50
65756;BME280;52489;47.502;18.940;2023-02-28T00:06:58;99109.69;;;-0.58;57.70
65756;BME280;52489;47.502;18.940;2023-02-28T00:08:01;99108.28;;;-0.54;57.41
65756;BME280;52489;47.502;18.940;2023-02-28T00:09:04;99109.28;;;-0.55;57.33
65756;BME280;52489;47.502;18.940;2023-02-28T00:10:09;99110.66;;;-0.66;57.84
65756;BME280;52489;47.502;18.940;2023-02-28T00:11:14;99114.00;;;-0.79;58.66
65756;BME280;52489;47.502;18.940;2023-02-28T00:12:17;99110.84;;;-0.67;58.15
65756;BME280;52489;47.502;18.940;2023-02-28T00:13:19;99119.38;;;-0.54;57.83
65756;BME280;52489;47.502;18.940;2023-02-28T00:14:22;99116.41;;;-0.57;57.67
65756;BME280;52489;47.502;18.940;2023-02-28T00:15:25;99118.97;;;-0.64;57.83
65756;BME280;52489;47.502;18.940;2023-02-28T00:16:28;99123.72;;;-0.61;57.83
65756;BME280;52489;47.502;18.940;2023-02-28T00:17:31;99120.75;;;-0.51;57.33
65756;BME280;52489;47.502;18.940;2023-02-28T00:18:34;99122.16;;;-0.55;57.40
65756;BME280;52489;47.502;18.940;2023-02-28T00:19:37;99113.81;;;-0.51;57.36
65756;BME280;52489;47.502;18.940;2023-02-28T00:20:40;99121.53;;;-0.57;57.74
65756;BME280;52489;47.502;18.940;2023-02-28T00:21:42;99124.72;;;-0.55;57.42
65756;BME280;52489;47.502;18.940;2023-02-28T00:22:48;99126.31;;;-0.54;57.63
65756;BME280;52489;47.502;18.940;2023-02-28T00:23:51;99128.28;;;-0.56;58.00
65756;BME280;52489;47.502;18.940;2023-02-28T00:24:54;99127.31;;;-0.49;57.57
65756;BME280;52489;47.502;18.940;2023-02-28T00:25:57;99125.13;;;-0.45;57.55
65756;BME280;52489;47.502;18.940;2023-02-28T00:27:00;99121.16;;;-0.67;58.09
65756;BME280;52489;47.502;18.940;2023-02-28T00:28:03;99128.66;;;-0.66;58.95
65756;BME280;52489;47.502;18.940;2023-02-28T00:29:06;99126.09;;;-0.59;58.87
65756;BME280;52489;47.502;18.940;2023-02-28T00:30:12;99126.47;;;-0.62;58.96
65756;BME280;52489;47.502;18.940;2023-02-28T00:31:18;99131.22;;;-0.59;59.56
65756;BME280;52489;47.502;18.940;2023-02-28T00:32:21;99128.47;;;-0.51;59.02
65756;BME280;52489;47.502;18.940;2023-02-28T00:33:24;99127.28;;;-0.62;58.85
65756;BME280;52489;47.502;18.940;2023-02-28T00:34:27;99130.44;;;-0.66;58.88
65756;BME280;52489;47.502;18.940;2023-02-28T00:35:30;99131.84;;;-0.51;57.43
65756;BME280;52489;47.502;18.940;2023-02-28T00:36:33;99133.22;;;-0.55;57.16
65756;BME280;52489;47.502;18.940;2023-02-28T00:37:36;99129.88;;;-0.55;57.31
65756;BME280;52489;47.502;18.940;2023-02-28T00:38:39;99127.69;;;-0.58;57.38
65756;BME280;52489;47.502;18.940;2023-02-28T00:39:43;99132.63;;;-0.63;57.44
65756;BME280;52489;47.502;18.940;2023-02-28T00:40:45;99131.03;;;-0.64;57.48
65756;BME280;52489;47.502;18.940;2023-02-28T00:41:49;99140.16;;;-0.62;57.41
65756;BME280;52489;47.502;18.940;2023-02-28T00:42:51;99138.38;;;-0.68;57.69
65756;BME280;52489;47.502;18.940;2023-02-28T00:43:54;99132.66;;;-0.50;57.33
65756;BME280;52489;47.502;18.940;2023-02-28T00:44:57;99139.00;;;-0.46;57.05
65756;BME280;52489;47.502;18.940;2023-02-28T00:46:00;99132.87;;;-0.38;57.00
65756;BME280;52489;47.502;18.940;2023-02-28T00:47:04;99141.00;;;-0.35;56.25
65756;BME280;52489;47.502;18.940;2023-02-28T00:48:07;99131.87;;;-0.24;55.69
65756;BME280;52489;47.502;18.940;2023-02-28T00:49:10;99135.06;;;-0.35;56.00
65756;BME280;52489;47.502;18.940;2023-02-28T00:50:12;99138.81;;;-0.31;56.27
65756;BME280;52489;47.502;18.940;2023-02-28T00:51:16;99134.84;;;-0.40;56.22
65756;BME280;52489;47.502;18.940;2023-02-28T00:52:18;99139.19;;;-0.28;56.00
65756;BME280;52489;47.502;18.940;2023-02-28T00:53:21;99138.59;;;-0.30;55.62
65756;BME280;52489;47.502;18.940;2023-02-28T00:54:24;99141.59;;;-0.26;55.62
65756;BME280;52489;47.502;18.940;2023-02-28T00:55:27;99123.97;;;-0.29;55.61
65756;BME280;52489;47.502;18.940;2023-02-28T00:56:30;99137.22;;;-0.39;56.05
65756;BME280;52489;47.502;18.940;2023-02-28T00:57:32;99143.12;;;-0.45;56.27
65756;BME280;52489;47.502;18.940;2023-02-28T00:58:36;99142.16;;;-0.44;55.81
65756;BME280;52489;47.502;18.940;2023-02-28T00:59:39;99139.59;;;-0.31;55.47
65756;BME280;52489;47.502;18.940;2023-02-28T01:00:42;99135.44;;;-0.25;55.29
65756;BME280;52489;47.502;18.940;2023-02-28T01:01:46;99136.22;;;-0.31;55.48
65756;BME280;52489;47.502;18.940;2023-02-28T01:02:49;99136.03;;;-0.30;55.52
65756;BME280;52489;47.502;18.940;2023-02-28T01:03:52;99138.81;;;-0.31;55.02
65756;BME280;52489;47.502;18.940;2023-02-28T01:04:55;99139.19;;;-0.34;55.28
65756;BME280;52489;47.502;18.940;2023-02-28T01:05:59;99145.13;;;-0.27;55.69
65756;BME280;52489;47.502;18.940;2023-02-28T01:07:02;99141.56;;;-0.39;55.96
65756;BME280;52489;47.502;18.940;2023-02-28T01:08:05;99129.91;;;-0.29;55.18
65756;BME280;52489;47.502;18.940;2023-02-28T01:09:09;99141.97;;;-0.42;55.78
65756;BME280;52489;47.502;18.940;2023-02-28T01:10:12;99134.84;;;-0.40;55.95
65756;BME280;52489;47.502;18.940;2023-02-28T01:11:17;99136.81;;;-0.42;55.88
65756;BME280;52489;47.502;18.940;2023-02-28T01:12:20;99137.41;;;-0.47;56.28
65756;BME280;52489;47.502;18.940;2023-02-28T01:13:23;99136.81;;;-0.42;56.07
65756;BME280;52489;47.502;18.940;2023-02-28T01:14:27;99132.47;;;-0.35;56.23
65756;BME280;52489;47.502;18.940;2023-02-28T01:15:30;99131.87;;;-0.24;55.77
65756;BME280;52489;47.502;18.940;2023-02-28T01:16:34;99140.00;;;-0.34;56.16
65756;BME280;52489;47.502;18.940;2023-02-28T01:17:37;99145.94;;;-0.33;56.17
65756;BME280;52489;47.502;18.940;2023-02-28T01:18:40;99143.56;;;-0.35;56.11
65756;BME280;52489;47.502;18.940;2023-02-28T01:19:43;99139.41;;;-0.29;55.87
65756;BME280;52489;47.502;18.940;2023-02-28T01:20:45;99142.56;;;-0.40;56.12
65756;BME280;52489;47.502;18.940;2023-02-28T01:21:48;99139.19;;;-0.41;55.76
65756;BME280;52489;47.502;18.940;2023-02-28T01:22:51;99140.78;;;-0.40;56.07
65756;BME280;52489;47.502;18.940;2023-02-28T01:23:57;99146.09;;;-0.41;56.01
65756;BME280;52489;47.502;18.940;2023-02-28T01:25:01;99138.03;;;-0.12;55.17
65756;BME280;52489;47.502;18.940;2023-02-28T01:26:08;99136.03;;;-0.10;54.76
65756;BME280;52489;47.502;18.940;2023-02-28T01:27:11;99146.53;;;-0.05;54.43
65756;BME280;52489;47.502;18.940;2023-02-28T01:28:15;99141.59;;;-0.13;54.73
65756;BME280;52489;47.502;18.940;2023-02-28T01:29:18;99138.03;;;-0.12;54.85
65756;BME280;52489;47.502;18.940;2023-02-28T01:30:22;99145.56;;;-0.10;54.69
65756;BME280;52489;47.502;18.940;2023-02-28T01:31:25;99143.38;;;-0.13;54.76
65756;BME280;52489;47.502;18.940;2023-02-28T01:32:28;99133.25;;;-0.21;54.93
65756;BME280;52489;47.502;18.940;2023-02-28T01:33:32;99142.78;;;-0.15;54.98
65756;BME280;52489;47.502;18.940;2023-02-28T01:34:35;99138.81;;;-0.25;55.09
65756;BME280;52489;47.502;18.940;2023-02-28T01:35:38;99138.41;;;-0.21;54.84
65756;BME280;52489;47.502;18.940;2023-02-28T01:36:41;99129.12;;;-0.29;55.24
65756;BME280;52489;47.502;18.940;2023-02-28T01:37:43;99135.44;;;-0.25;55.14
65756;BME280;52489;47.502;18.940;2023-02-28T01:38:47;99139.22;;;-0.14;55.15
65756;BME280;52489;47.502;18.940;2023-02-28T01:39:50;99135.25;;;-0.17;55.08
65756;BME280;52489;47.502;18.940;2023-02-28T01:40:53;99141.19;;;-0.16;54.95
65756;BME280;52489;47.502;18.940;2023-02-28T01:41:56;99142.59;;;-0.07;54.56
65756;BME280;52489;47.502;18.940;2023-02-28T01:42:59;99134.47;;;-0.17;54.73
65756;BME280;52489;47.502;18.940;2023-02-28T01:44:07;99139.19;;;-0.28;55.08
65756;BME280;52489;47.502;18.940;2023-02-28T01:45:30;99130.88;;;-0.30;55.33
65756;BME280;52489;47.502;18.940;2023-02-28T01:46:35;99135.44;;;-0.38;55.94
65756;BME280;52489;47.502;18.940;2023-02-28T01:47:40;99126.13;;;-0.39;55.59
65756;BME280;52489;47.502;18.940;2023-02-28T01:48:55;99130.66;;;-0.41;55.83
65756;BME280;52489;47.502;18.940;2023-02-28T01:50:04;99124.16;;;-0.31;55.89
65756;BME280;52489;47.502;18.940;2023-02-28T01:51:12;99129.28;;;-0.24;55.17
65756;BME280;52489;47.502;18.940;2023-02-28T01:52:17;99134.47;;;-0.17;55.04
65756;BME280;52489;47.502;18.940;2023-02-28T01:53:24;99130.88;;;-0.10;54.58
65756;BME280;52489;47.502;18.940;2023-02-28T01:54:31;99137.22;;;-0.19;55.08
65756;BME280;52489;47.502;18.940;2023-02-28T01:55:37;99130.69;;;-0.28;55.37
65756;BME280;52489;47.502;18.940;2023-02-28T01:56:45;99131.47;;;-0.34;55.56
65756;BME280;52489;47.502;18.940;2023-02-28T01:57:52;99131.69;;;-0.22;55.38
65756;BME280;52489;47.502;18.940;2023-02-28T01:58:57;99131.87;;;-0.11;54.89
65756;BME280;52489;47.502;18.940;2023-02-28T02:00:05;99131.91;;;-0.17;55.13
65756;BME280;52489;47.502;18.940;2023-02-28T02:01:10;99133.47;;;-0.10;55.45
65756;BME280;52489;47.502;18.940;2023-02-28T02:02:24;99132.69;;;-0.10;54.82
65756;BME280;52489;47.502;18.940;2023-02-28T02:03:28;99134.06;;;-0.21;55.07
65756;BME280;52489;47.502;18.940;2023-02-28T02:04:37;99126.34;;;-0.28;55.26
65756;BME280;52489;47.502;18.940;2023-02-28T02:05:42;99132.28;;;-0.34;55.50
65756;BME280;52489;47.502;18.940;2023-02-28T02:06:50;99130.69;;;-0.15;55.14
65756;BME280;52489;47.502;18.940;2023-02-28T02:08:09;99130.69;;;-0.21;55.33
65756;BME280;52489;47.502;18.940;2023-02-28T02:09:13;99130.50;;;-0.27;55.50
65756;BME280;52489;47.502;18.940;2023-02-28T02:10:20;99132.28;;;-0.20;55.35
65756;BME280;52489;47.502;18.940;2023-02-28T02:11:24;99136.03;;;-0.36;55.52
65756;BME280;52489;47.502;18.940;2023-02-28T02:14:38;99126.72;;;-0.37;55.76
65756;BME280;52489;47.502;18.940;2023-02-28T02:17:15;99139.59;;;-0.44;55.89
65756;BME280;52489;47.502;18.940;2023-02-28T02:26:55;99137.63;;;-0.29;55.31
65756;BME280;52489;47.502;18.940;2023-02-28T02:28:10;99128.50;;;-0.31;55.38
65756;BME280;52489;47.502;18.940;2023-02-28T02:35:28;99128.91;;;-0.34;56.33
65756;BME280;52489;47.502;18.940;2023-02-28T02:36:40;99137.22;;;-0.32;55.95
65756;BME280;52489;47.502;18.940;2023-02-28T02:39:10;99129.69;;;-0.27;55.01
65756;BME280;52489;47.502;18.940;2023-02-28T02:40:20;99126.50;;;-0.42;55.60
65756;BME280;52489;47.502;18.940;2023-02-28T02:41:35;99133.84;;;-0.33;55.52
65756;BME280;52489;47.502;18.940;2023-02-28T02:43:01;99141.38;;;-0.31;55.08
65756;BME280;52489;47.502;18.940;2023-02-28T02:44:18;99136.25;;;-0.38;55.34
65756;BME280;52489;47.502;18.940;2023-02-28T02:45:43;99138.59;;;-0.36;55.35
65756;BME280;52489;47.502;18.940;2023-02-28T02:46:52;99134.66;;;-0.32;55.33
65756;BME280;52489;47.502;18.940;2023-02-28T02:47:58;99134.25;;;-0.36;55.84
65756;BME280;52489;47.502;18.940;2023-02-28T02:49:06;99135.44;;;-0.32;55.60
65756;BME280;52489;47.502;18.940;2023-02-28T02:50:14;99138.03;;;-0.38;55.63
65756;BME280;52489;47.502;18.940;2023-02-28T02:51:22;99135.62;;;-0.40;55.66
65756;BME280;52489;47.502;18.940;2023-02-28T02:52:34;99142.78;;;-0.35;55.64
65756;BME280;52489;47.502;18.940;2023-02-28T02:53:47;99138.59;;;-0.43;56.22
65756;BME280;52489;47.502;18.940;2023-02-28T02:54:54;99140.78;;;-0.40;55.80
65756;BME280;52489;47.502;18.940;2023-02-28T02:56:00;99142.56;;;-0.40;55.72
65756;BME280;52489;47.502;18.940;2023-02-28T02:57:08;99140.19;;;-0.42;55.78
65756;BME280;52489;47.502;18.940;2023-02-28T02:58:17;99138.41;;;-0.28;55.34
65756;BME280;52489;47.502;18.940;2023-02-28T02:59:23;99139.41;;;-0.16;55.04
65756;BME280;52489;47.502;18.940;2023-02-28T03:00:31;99140.00;;;-0.27;55.43
65756;BME280;52489;47.502;18.940;2023-02-28T03:01:37;99132.69;;;-0.24;55.34
65756;BME280;52489;47.502;18.940;2023-02-28T03:02:41;99134.44;;;-0.24;55.33
65756;BME280;52489;47.502;18.940;2023-02-28T03:03:45;99135.03;;;-0.42;55.99
65756;BME280;52489;47.502;18.940;2023-02-28T03:05:00;99142.78;;;-0.29;55.50
65756;BME280;52489;47.502;18.940;2023-02-28T03:06:05;99141.97;;;-0.36;55.78
65756;BME280;52489;47.502;18.940;2023-02-28T03:07:08;99143.97;;;-0.38;55.86
65756;BME280;52489;47.502;18.940;2023-02-28T03:08:11;99141.00;;;-0.35;55.87
65756;BME280;52489;47.502;18.940;2023-02-28T03:09:14;99144.53;;;-0.42;56.06
65756;BME280;52489;47.502;18.940;2023-02-28T03:10:31;99146.94;;;-0.28;56.16
65756;BME280;52489;47.502;18.940;2023-02-28T03:11:36;99143.75;;;-0.30;55.56
65756;BME280;52489;47.502;18.940;2023-02-28T03:12:44;99144.72;;;-0.51;56.11
65756;BME280;52489;47.502;18.940;2023-02-28T03:15:26;99142.38;;;-0.32;55.79
65756;BME280;52489;47.502;18.940;2023-02-28T03:18:09;99141.19;;;-0.43;56.32
65756;BME280;52489;47.502;18.940;2023-02-28T03:19:21;99149.06;;;-0.51;57.16
65756;BME280;52489;47.502;18.940;2023-02-28T03:20:40;99145.72;;;-0.52;56.88
65756;BME280;52489;47.502;18.940;2023-02-28T03:22:13;99151.81;;;-0.59;57.18
65756;BME280;52489;47.502;18.940;2023-02-28T03:23:20;99150.47;;;-0.49;56.45
65756;BME280;52489;47.502;18.940;2023-02-28T03:24:49;99144.72;;;-0.51;56.60
65756;BME280;52489;47.502;18.940;2023-02-28T03:26:00;99149.91;;;-0.37;56.02
65756;BME280;52489;47.502;18.940;2023-02-28T03:27:24;99149.28;;;-0.46;56.33
65756;BME280;52489;47.502;18.940;2023-02-28T03:29:02;99151.88;;;-0.39;56.10
65756;BME280;52489;47.502;18.940;2023-02-28T03:30:15;99146.09;;;-0.48;56.38
65756;BME280;52489;47.502;18.940;2023-02-28T03:31:43;99148.06;;;-0.63;57.38
65756;BME280;52489;47.502;18.940;2023-02-28T03:32:55;99147.72;;;-0.47;56.66
65756;BME280;52489;47.502;18.940;2023-02-28T03:34:29;99148.53;;;-0.27;55.39
65756;BME280;52489;47.502;18.940;2023-02-28T03:35:36;99144.94;;;-0.39;55.57
65756;BME280;52489;47.502;18.940;2023-02-28T03:36:50;99151.28;;;-0.28;55.51
65756;BME280;52489;47.502;18.940;2023-02-28T03:38:10;99154.66;;;-0.41;55.90
65756;BME280;52489;47.502;18.940;2023-02-28T03:39:23;99156.00;;;-0.45;55.72
65756;BME280;52489;47.502;18.940;2023-02-28T03:40:33;99151.25;;;-0.48;55.99
65756;BME280;52489;47.502;18.940;2023-02-28T03:41:44;99152.06;;;-0.41;55.96
65756;BME280;52489;47.502;18.940;2023-02-28T03:42:54;99146.09;;;-0.41;56.34
65756;BME280;52489;47.502;18.940;2023-02-28T03:44:16;99149.91;;;-0.37;56.29
65756;BME280;52489;47.502;18.940;2023-02-28T03:45:25;99147.72;;;-0.47;56.02
65756;BME280;52489;47.502;18.940;2023-02-28T03:46:32;99142.34;;;-0.59;56.77
65756;BME280;52489;47.502;18.940;2023-02-28T03:47:40;99149.09;;;-0.38;56.24
65756;BME280;52489;47.502;18.940;2023-02-28T03:48:51;99141.34;;;-0.44;56.18
65756;BME280;52489;47.502;18.940;2023-02-28T03:50:10;99145.53;;;-0.50;56.77
65756;BME280;52489;47.502;18.940;2023-02-28T03:51:18;99147.09;;;-0.49;56.38
65756;BME280;52489;47.502;18.940;2023-02-28T03:52:27;99142.13;;;-0.57;56.61
65756;BME280;52489;47.502;18.940;2023-02-28T03:53:37;99152.66;;;-0.52;56.51
65756;BME280;52489;47.502;18.940;2023-02-28T03:54:47;99153.03;;;-0.55;55.82
65756;BME280;52489;47.502;18.940;2023-02-28T03:57:38;99156.41;;;-0.48;55.91
65756;BME280;52489;47.502;18.940;2023-02-28T03:59:00;99149.47;;;-0.54;56.02
65756;BME280;52489;47.502;18.940;2023-02-28T04:01:21;99145.72;;;-0.45;56.38
65756;BME280;52489;47.502;18.940;2023-02-28T04:02:27;99146.72;;;-0.53;56.88
65756;BME280;52489;47.502;18.940;2023-02-28T04:03:30;99153.44;;;-0.52;56.46
65756;BME280;52489;47.502;18.940;2023-02-28T04:04:33;99143.53;;;-0.48;56.33
65756;BME280;52489;47.502;18.940;2023-02-28T04:06:06;99141.56;;;-0.39;56.04
65756;BME280;52489;47.502;18.940;2023-02-28T04:07:11;99142.56;;;-0.40;55.72
65756;BME280;52489;47.502;18.940;2023-02-28T04:08:14;99144.12;;;-0.53;56.15
65756;BME280;52489;47.502;18.940;2023-02-28T04:09:17;99146.94;;;-0.41;55.98
65756;BME280;52489;47.502;18.940;2023-02-28T04:10:20;99149.28;;;-0.46;56.41
65756;BME280;52489;47.502;18.940;2023-02-28T04:11:46;99151.88;;;-0.39;55.99
65756;BME280;52489;47.502;18.940;2023-02-28T04:12:54;99139.78;;;-0.46;55.65
65756;BME280;52489;47.502;18.940;2023-02-28T04:13:57;99144.72;;;-0.51;55.99
65756;BME280;52489;47.502;18.940;2023-02-28T04:14:59;99142.56;;;-0.34;55.77
65756;BME280;52489;47.502;18.940;2023-02-28T04:16:06;99137.81;;;-0.37;55.76
65756;BME280;52489;47.502;18.940;2023-02-28T04:17:22;99130.88;;;-0.30;55.59
65756;BME280;52489;47.502;18.940;2023-02-28T04:18:25;99132.44;;;-0.42;55.67
65756;BME280;52489;47.502;18.940;2023-02-28T04:19:28;99141.56;;;-0.39;55.72
65756;BME280;52489;47.502;18.940;2023-02-28T04:20:31;99140.37;;;-0.43;55.97
65756;BME280;52489;47.502;18.940;2023-02-28T04:21:46;99141.56;;;-0.39;55.70
65756;BME280;52489;47.502;18.940;2023-02-28T04:22:49;99141.19;;;-0.36;55.90
65756;BME280;52489;47.502;18.940;2023-02-28T04:23:52;99141.16;;;-0.30;55.63
65756;BME280;52489;47.502;18.940;2023-02-28T04:24:55;99134.06;;;-0.41;55.92
65756;BME280;52489;47.502;18.940;2023-02-28T04:25:57;99140.37;;;-0.43;55.97
65756;BME280;52489;47.502;18.940;2023-02-28T04:27:01;99135.41;;;-0.45;56.16
65756;BME280;52489;47.502;18.940;2023-02-28T04:28:04;99138.59;;;-0.30;55.67
65756;BME280;52489;47.502;18.940;2023-02-28T04:29:07;99144.53;;;-0.42;56.20
65756;BME280;52489;47.502;18.940;2023-02-28T04:30:11;99138.38;;;-0.48;56.46
65756;BME280;52489;47.502;18.940;2023-02-28T04:31:14;99136.81;;;-0.49;56.67
65756;BME280;52489;47.502;18.940;2023-02-28T04:32:17;99138.56;;;-0.56;56.76
65756;BME280;52489;47.502;18.940;2023-02-28T04:33:20;99129.44;;;-0.65;56.99
65756;BME280;52489;47.502;18.940;2023-02-28T04:34:23;99136.59;;;-0.61;56.94
65756;BME280;52489;47.502;18.940;2023-02-28T04:35:25;99134.59;;;-0.65;56.72
65756;BME280;52489;47.502;18.940;2023-02-28T04:36:29;99128.47;;;-0.51;56.42
65756;BME280;52489;47.502;18.940;2023-02-28T04:37:31;99134.81;;;-0.60;56.80
65756;BME280;52489;47.502;18.940;2023-02-28T04:38:38;99129.66;;;-0.67;56.69
65756;BME280;52489;47.502;18.940;2023-02-28T04:39:42;99133.06;;;-0.53;56.81
65756;BME280;52489;47.502;18.940;2023-02-28T04:40:45;99133.22;;;-0.55;56.78
65756;BME280;52489;47.502;18.940;2023-02-28T04:41:48;99134.22;;;-0.56;56.95
65756;BME280;52489;47.502;18.940;2023-02-28T04:42:51;99134.22;;;-0.56;57.43
65756;BME280;52489;47.502;18.940;2023-02-28T04:43:54;99133.63;;;-0.51;57.41
65756;BME280;52489;47.502;18.940;2023-02-28T04:44:56;99128.66;;;-0.59;57.85
65756;BME280;52489;47.502;18.940;2023-02-28T04:46:02;99130.25;;;-0.58;57.99
65756;BME280;52489;47.502;18.940;2023-02-28T04:47:05;99129.09;;;-0.49;57.85
65756;BME280;52489;47.502;18.940;2023-02-28T04:48:08;99129.09;;;-0.49;56.92
65756;BME280;52489;47.502;18.940;2023-02-28T04:49:12;99133.84;;;-0.53;56.70
65756;BME280;52489;47.502;18.940;2023-02-28T04:50:15;99130.28;;;-0.52;56.80
65756;BME280;52489;47.502;18.940;2023-02-28T04:51:19;99133.25;;;-0.48;56.63
65756;BME280;52489;47.502;18.940;2023-02-28T04:52:22;99134.06;;;-0.41;56.39
65756;BME280;52489;47.502;18.940;2023-02-28T04:53:24;99135.44;;;-0.38;56.21
65756;BME280;52489;47.502;18.940;2023-02-28T04:54:27;99135.25;;;-0.30;56.14
65756;BME280;52489;47.502;18.940;2023-02-28T04:55:30;99130.31;;;-0.38;56.22
65756;BME280;52489;47.502;18.940;2023-02-28T04:56:33;99137.59;;;-0.42;56.38
65756;BME280;52489;47.502;18.940;2023-02-28T04:57:36;99135.06;;;-0.35;56.25
65756;BME280;52489;47.502;18.940;2023-02-28T04:58:40;99130.66;;;-0.48;56.36
65756;BME280;52489;47.502;18.940;2023-02-28T04:59:43;99136.81;;;-0.56;56.83
65756;BME280;52489;47.502;18.940;2023-02-28T05:00:46;99138.56;;;-0.56;57.06
65756;BME280;52489;47.502;18.940;2023-02-28T05:01:49;99137.19;;;-0.59;57.00
65756;BME280;52489;47.502;18.940;2023-02-28T05:02:52;99134.41;;;-0.57;56.77
65756;BME280;52489;47.502;18.940;2023-02-28T05:03:57;99124.91;;;-0.70;57.35
65756;BME280;52489;47.502;18.940;2023-02-28T05:05:00;99128.28;;;-0.56;57.00
65756;BME280;52489;47.502;18.940;2023-02-28T05:06:03;99133.06;;;-0.53;56.78
65756;BME280;52489;47.502;18.940;2023-02-28T05:07:06;99135.41;;;-0.65;57.22
65756;BME280;52489;47.502;18.940;2023-02-28T05:08:09;99138.16;;;-0.73;58.00
65756;BME280;52489;47.502;18.940;2023-02-28T05:09:12;99135.19;;;-0.57;57.87
65756;BME280;52489;47.502;18.940;2023-02-28T05:10:15;99126.91;;;-0.52;57.64
65756;BME280;52489;47.502;18.940;2023-02-28T05:11:21;99133.63;;;-0.51;57.36
65756;BME280;52489;47.502;18.940;2023-02-28T05:12:24;99129.09;;;-0.56;57.65
65756;BME280;52489;47.502;18.940;2023-02-28T05:13:27;99133.63;;;-0.64;58.07
65756;BME280;52489;47.502;18.940;2023-02-28T05:14:30;99131.22;;;-0.66;58.39
65756;BME280;52489;47.502;18.940;2023-02-28T05:15:33;99137.94;;;-0.72;58.86
65756;BME280;52489;47.502;18.940;2023-02-28T05:16:37;99135.41;;;-0.58;58.44
65756;BME280;52489;47.502;18.940;2023-02-28T05:17:40;99140.56;;;-0.65;58.81
65756;BME280;52489;47.502;18.940;2023-02-28T05:18:43;99140.34;;;-0.57;58.66
65756;BME280;52489;47.502;18.940;2023-02-28T05:19:46;99135.97;;;-0.63;58.65
65756;BME280;52489;47.502;18.940;2023-02-28T05:20:49;99140.31;;;-0.77;59.12
65756;BME280;52489;47.502;18.940;2023-02-28T05:21:54;99144.69;;;-0.71;58.65
65756;BME280;52489;47.502;18.940;2023-02-28T05:22:58;99141.72;;;-0.67;58.73
65756;BME280;52489;47.502;18.940;2023-02-28T05:24:05;99146.87;;;-0.67;59.10
65756;BME280;52489;47.502;18.940;2023-02-28T05:25:17;99142.91;;;-0.57;58.26
65756;BME280;52489;47.502;18.940;2023-02-28T05:26:20;99152.63;;;-0.59;58.24
65756;BME280;52489;47.502;18.940;2023-02-28T05:27:24;99146.50;;;-0.58;58.48
65756;BME280;52489;47.502;18.940;2023-02-28T05:28:28;99147.69;;;-0.60;58.49
65756;BME280;52489;47.502;18.940;2023-02-28T05:29:31;99152.03;;;-0.61;58.71
65756;BME280;52489;47.502;18.940;2023-02-28T05:30:34;99148.28;;;-0.65;58.82
65756;BME280;52489;47.502;18.940;2023-02-28T05:31:38;99146.87;;;-0.67;58.81
65756;BME280;52489;47.502;18.940;2023-02-28T05:32:41;99146.66;;;-0.73;58.72
65756;BME280;52489;47.502;18.940;2023-02-28T05:33:47;99146.66;;;-0.73;59.09
65756;BME280;52489;47.502;18.940;2023-02-28T05:34:50;99145.72;;;-0.52;58.58
65756;BME280;52489;47.502;18.940;2023-02-28T05:35:53;99151.47;;;-0.36;57.85
65756;BME280;52489;47.502;18.940;2023-02-28T05:36:56;99151.69;;;-0.31;57.50
65756;BME280;52489;47.502;18.940;2023-02-28T05:37:59;99153.06;;;-0.29;57.14
65756;BME280;52489;47.502;18.940;2023-02-28T05:39:01;99151.47;;;-0.36;57.66
65756;BME280;52489;47.502;18.940;2023-02-28T05:40:06;99154.03;;;-0.36;57.79
65756;BME280;52489;47.502;18.940;2023-02-28T05:41:11;99157.63;;;-0.31;57.71
65756;BME280;52489;47.502;18.940;2023-02-28T05:42:14;99153.06;;;-0.29;57.64
65756;BME280;52489;47.502;18.940;2023-02-28T05:43:16;99158.44;;;-0.24;57.53
65756;BME280;52489;47.502;18.940;2023-02-28T05:44:19;99155.25;;;-0.19;57.14
65756;BME280;52489;47.502;18.940;2023-02-28T05:45:22;99158.62;;;-0.25;57.56
65756;BME280;52489;47.502;18.940;2023-02-28T05:46:25;99161.00;;;-0.24;57.71
65756;BME280;52489;47.502;18.940;2023-02-28T05:47:28;99162.97;;;-0.19;57.46
65756;BME280;52489;47.502;18.940;2023-02-28T05:48:31;99160.41;;;-0.32;57.80
65756;BME280;52489;47.502;18.940;2023-02-28T05:49:34;99156.63;;;-0.36;57.79
65756;BME280;52489;47.502;18.940;2023-02-28T05:50:37;99167.31;;;-0.53;59.44
65756;BME280;52489;47.502;18.940;2023-02-28T05:51:39;99155.41;;;-0.60;59.39
65756;BME280;52489;47.502;18.940;2023-02-28T05:52:42;99162.50;;;-0.62;59.33
65756;BME280;52489;47.502;18.940;2023-02-28T05:53:45;99164.13;;;-0.41;59.01
65756;BME280;52489;47.502;18.940;2023-02-28T05:54:48;99169.09;;;-0.40;58.46
65756;BME280;52489;47.502;18.940;2023-02-28T05:55:51;99168.13;;;-0.26;58.03
65756;BME280;52489;47.502;18.940;2023-02-28T05:56:54;99173.69;;;-0.29;57.57
65756;BME280;52489;47.502;18.940;2023-02-28T05:57:57;99172.09;;;-0.23;57.22
65756;BME280;52489;47.502;18.940;2023-02-28T05:59:00;99176.84;;;-0.20;57.00
65756;BME280;52489;47.502;18.940;2023-02-28T06:00:03;99184.53;;;-0.40;57.72
65756;BME280;52489;47.502;18.940;2023-02-28T06:01:42;99182.56;;;-0.31;57.61
65756;BME280;52489;47.502;18.940;2023-02-28T06:02:50;99185.34;;;-0.33;58.05
65756;BME280;52489;47.502;18.940;2023-02-28T06:03:55;99188.34;;;-0.29;57.85
65756;BME280;52489;47.502;18.940;2023-02-28T06:04:58;99183.94;;;-0.42;58.19
65756;BME280;52489;47.502;18.940;2023-02-28T06:06:01;99179.97;;;-0.44;58.58
65756;BME280;52489;47.502;18.940;2023-02-28T06:07:04;99178.78;;;-0.42;58.52
65756;BME280;52489;47.502;18.940;2023-02-28T06:08:07;99180.22;;;-0.26;57.47
65756;BME280;52489;47.502;18.940;2023-02-28T06:09:11;99184.59;;;-0.20;57.35
65756;BME280;52489;47.502;18.940;2023-02-28T06:10:14;99174.66;;;-0.16;57.34
65756;BME280;52489;47.502;18.940;2023-02-28T06:11:17;99183.97;;;-0.15;57.59